Time;durP1;ratioP1;P1;durP2;ratioP2;P2;SDS_P1;SDS_P2;PMS_P1;PMS_P2;Temp;Humidity;BMP_temperature;BMP_pressure;BME280_temperature;BME280_humidity;BME280_pressure;Samples;Min_cycle;Max_cycle;Signal;HPM_P1;HPM_P2
2021/04/26 00:27:29;;;;;;;1.77;1.60;;;;;;;;;;4309178;28;20195;-63
2021/04/26 00:29:55;;;;;;;3.60;1.83;;;;;;;;;;4123851;34;20544;-64
2021/04/26 00:32:20;;;;;;;2.62;1.92;;;;;;;;;;4123545;34;20123;-63
2021/04/26 00:34:46;;;;;;;2.33;1.60;;;;;;;;;;4123707;34;20123;-63
2021/04/26 00:37:12;;;;;;;2.85;1.70;;;;;;;;;;4124015;34;20120;-65
2021/04/26 00:39:38;;;;;;;2.35;1.67;;;;;;;;;;4122395;34;20128;-64
2021/04/26 00:42:04;;;;;;;3.17;1.95;;;;;;;;;;4123828;34;20453;-64
2021/04/26 00:44:30;;;;;;;3.70;1.65;;;;;;;;;;4123915;34;20513;-64
2021/04/26 00:46:55;;;;;;;3.70;1.60;;;;;;;;;;4123981;34;20234;-64
2021/04/26 00:49:21;;;;;;;2.72;1.62;;;;;;;;;;4123777;34;20139;-64
2021/04/26 00:51:47;;;;;;;3.83;1.70;;;;;;;;;;4122555;34;20127;-64
2021/04/26 00:54:13;;;;;;;2.83;1.90;;;;;;;;;;4122270;34;20154;-64
2021/04/26 00:56:39;;;;;;;5.85;1.75;;;;;;;;;;4121997;34;20515;-64
2021/04/26 00:59:05;;;;;;;2.00;1.75;;;;;;;;;;4123833;34;20135;-64
2021/04/26 01:01:30;;;;;;;3.53;1.60;;;;;;;;;;4122056;34;20531;-64
2021/04/26 01:03:56;;;;;;;3.95;1.92;;;;;;;;;;4123583;34;20543;-64
2021/04/26 01:06:22;;;;;;;2.25;1.73;;;;;;;;;;4123451;34;20124;-64
2021/04/26 01:08:48;;;;;;;3.85;1.60;;;;;;;;;;4123444;34;20224;-64
2021/04/26 01:11:14;;;;;;;3.80;1.80;;;;;;;;;;4123391;34;20136;-64
2021/04/26 01:13:49;;;;;;;4.03;1.73;;;;;;;;;;4122094;34;20194;-65
2021/04/26 01:16:16;;;;;;;3.45;1.92;;;;;;;;;;4123349;34;20133;-64
2021/04/26 01:19:06;;;;;;;3.05;2.00;;;;;;;;;;4122036;34;20128;-64
2021/04/26 01:21:50;;;;;;;3.17;1.95;;;;;;;;;;4116236;34;20116;-64
2021/04/26 01:24:25;;;;;;;3.12;1.70;;;;;;;;;;4123632;34;20124;-64
2021/04/26 01:27:09;;;;;;;4.87;2.17;;;;;;;;;;4123112;34;20144;-64
2021/04/26 01:29:56;;;;;;;3.08;2.15;;;;;;;;;;4123515;34;20192;-64
2021/04/26 01:32:31;;;;;;;3.10;2.15;;;;;;;;;;4108176;34;20139;-64
2021/04/26 01:34:57;;;;;;;2.12;1.92;;;;;;;;;;4111556;34;20461;-64
2021/04/26 01:37:23;;;;;;;5.03;2.22;;;;;;;;;;4123113;34;20124;-64
2021/04/26 01:39:49;;;;;;;3.47;1.90;;;;;;;;;;4110827;34;20147;-64
2021/04/26 01:42:16;;;;;;;2.55;2.20;;;;;;;;;;4099883;34;20127;-64
2021/04/26 01:44:41;;;;;;;3.10;2.03;;;;;;;;;;4099060;34;20287;-64
2021/04/26 01:47:07;;;;;;;2.35;1.87;;;;;;;;;;4110587;34;20139;-64
2021/04/26 01:49:33;;;;;;;4.82;2.20;;;;;;;;;;4110946;34;20138;-64
2021/04/26 01:52:00;;;;;;;3.05;2.05;;;;;;;;;;4110999;34;20123;-64
2021/04/26 01:54:26;;;;;;;3.95;2.45;;;;;;;;;;4100322;34;20122;-64
2021/04/26 01:56:52;;;;;;;2.92;2.20;;;;;;;;;;4123038;34;20100;-64
2021/04/26 01:59:18;;;;;;;2.72;2.00;;;;;;;;;;4099645;34;20110;-64
2021/04/26 02:01:44;;;;;;;3.47;2.40;;;;;;;;;;4123031;34;20130;-64
2021/04/26 02:04:10;;;;;;;4.28;2.40;;;;;;;;;;4121877;34;20145;-64
2021/04/26 02:06:36;;;;;;;3.60;2.60;;;;;;;;;;4121605;34;20115;-64
2021/04/26 02:09:02;;;;;;;3.62;2.47;;;;;;;;;;4121577;34;20159;-64
2021/04/26 02:11:28;;;;;;;5.25;2.75;;;;;;;;;;4121350;34;20417;-65
2021/04/26 02:13:54;;;;;;;4.30;2.97;;;;;;;;;;4123144;34;20213;-64
2021/04/26 02:16:20;;;;;;;4.62;2.60;;;;;;;;;;4121508;34;20397;-71
2021/04/26 02:18:47;;;;;;;4.12;3.10;;;;;;;;;;4121336;34;20135;-65
2021/04/26 02:21:12;;;;;;;3.85;2.87;;;;;;;;;;4121404;34;20184;-64
2021/04/26 02:23:38;;;;;;;3.03;2.40;;;;;;;;;;4123056;34;20143;-64
2021/04/26 02:26:05;;;;;;;7.18;4.28;;;;;;;;;;4122391;34;20532;-64
2021/04/26 02:28:31;;;;;;;7.18;2.80;;;;;;;;;;4123089;34;20123;-64
2021/04/26 02:30:58;;;;;;;6.40;3.40;;;;;;;;;;4121280;34;20448;-64
2021/04/26 02:33:46;;;;;;;7.20;3.15;;;;;;;;;;4110413;34;20104;-64
2021/04/26 02:36:19;;;;;;;4.55;2.72;;;;;;;;;;4122487;34;20221;-64
2021/04/26 02:38:50;;;;;;;10.07;4.12;;;;;;;;;;4121239;34;20172;-64
2021/04/26 02:41:20;;;;;;;7.07;3.00;;;;;;;;;;4122449;34;20216;-64
2021/04/26 02:43:47;;;;;;;4.65;3.33;;;;;;;;;;4122575;34;20100;-64
2021/04/26 02:46:13;;;;;;;5.97;3.03;;;;;;;;;;4121163;34;20151;-64
2021/04/26 02:48:44;;;;;;;6.30;3.62;;;;;;;;;;4121161;34;20247;-64
2021/04/26 02:51:10;;;;;;;6.70;3.40;;;;;;;;;;4121074;34;20118;-64
2021/04/26 02:53:36;;;;;;;7.70;3.72;;;;;;;;;;4121316;34;20542;-63
2021/04/26 02:56:20;;;;;;;4.57;3.20;;;;;;;;;;4122833;34;20204;-63
2021/04/26 02:58:47;;;;;;;6.10;3.28;;;;;;;;;;4123348;34;20562;-64
2021/04/26 03:01:13;;;;;;;5.05;3.40;;;;;;;;;;4123133;34;20512;-64
2021/04/26 03:03:40;;;;;;;5.15;3.10;;;;;;;;;;4124797;34;20155;-64
2021/04/26 03:06:06;;;;;;;5.50;3.75;;;;;;;;;;4124485;34;20123;-64
2021/04/26 03:08:32;;;;;;;3.95;2.83;;;;;;;;;;4123174;34;20118;-62
2021/04/26 03:10:58;;;;;;;5.18;3.10;;;;;;;;;;4123269;34;20119;-63
2021/04/26 03:13:28;;;;;;;7.65;3.53;;;;;;;;;;4124629;34;20126;-63
2021/04/26 03:15:54;;;;;;;5.47;3.08;;;;;;;;;;4111931;34;20120;-63
2021/04/26 03:18:20;;;;;;;4.15;3.25;;;;;;;;;;4115772;34;20528;-63
2021/04/26 03:20:46;;;;;;;7.62;3.62;;;;;;;;;;4108589;34;20134;-62
2021/04/26 03:23:20;;;;;;;6.12;3.42;;;;;;;;;;4121116;34;20429;-64
2021/04/26 03:25:46;;;;;;;7.18;4.10;;;;;;;;;;4121818;34;20107;-64
2021/04/26 03:28:12;;;;;;;7.53;3.95;;;;;;;;;;4123108;34;20444;-63
2021/04/26 03:30:38;;;;;;;14.38;4.85;;;;;;;;;;4122732;34;20106;-63
2021/04/26 03:33:04;;;;;;;7.47;4.70;;;;;;;;;;4122613;34;20123;-64
2021/04/26 03:35:30;;;;;;;6.95;5.28;;;;;;;;;;4124508;34;20126;-64
2021/04/26 03:37:56;;;;;;;10.18;5.40;;;;;;;;;;4122646;34;20100;-63
2021/04/26 03:40:24;;;;;;;8.50;5.30;;;;;;;;;;4123028;34;20128;-63
2021/04/26 03:42:58;;;;;;;10.13;6.15;;;;;;;;;;4111668;34;20124;-62
2021/04/26 03:45:24;;;;;;;13.82;7.15;;;;;;;;;;4124160;34;20120;-63
2021/04/26 03:47:50;;;;;;;13.38;7.55;;;;;;;;;;4124031;34;20566;-63
2021/04/26 03:50:17;;;;;;;13.98;8.73;;;;;;;;;;4124138;34;20118;-63
2021/04/26 03:52:43;;;;;;;12.52;8.68;;;;;;;;;;4124277;34;20537;-63
2021/04/26 03:55:15;;;;;;;36.08;10.25;;;;;;;;;;4124284;34;20130;-62
2021/04/26 03:57:41;;;;;;;15.38;8.38;;;;;;;;;;4123897;34;20200;-64
2021/04/26 04:00:08;;;;;;;11.60;8.00;;;;;;;;;;4123948;34;20547;-63
2021/04/26 04:02:33;;;;;;;13.68;8.10;;;;;;;;;;4124154;34;20112;-63
2021/04/26 04:04:59;;;;;;;11.50;7.28;;;;;;;;;;4122534;34;20183;-63
2021/04/26 04:07:26;;;;;;;10.90;5.93;;;;;;;;;;4123426;34;20127;-63
2021/04/26 04:09:53;;;;;;;10.63;6.00;;;;;;;;;;4126210;34;20118;-64
2021/04/26 04:12:19;;;;;;;10.43;5.57;;;;;;;;;;4126831;34;20118;-67
2021/04/26 04:14:45;;;;;;;8.73;5.53;;;;;;;;;;4127025;34;20528;-63
2021/04/26 04:17:11;;;;;;;7.05;4.80;;;;;;;;;;4126929;34;20204;-63
2021/04/26 04:19:37;;;;;;;9.52;5.10;;;;;;;;;;4124176;34;20527;-64
2021/04/26 04:22:03;;;;;;;11.07;5.20;;;;;;;;;;4124017;34;20216;-64
2021/04/26 04:24:29;;;;;;;8.70;4.82;;;;;;;;;;4123804;34;20633;-65
2021/04/26 04:26:55;;;;;;;7.30;5.22;;;;;;;;;;4123480;34;20540;-64
2021/04/26 04:29:21;;;;;;;12.10;5.85;;;;;;;;;;4123701;34;20241;-64
2021/04/26 04:31:47;;;;;;;9.32;6.10;;;;;;;;;;4123585;34;20211;-63
2021/04/26 04:34:13;;;;;;;8.57;6.32;;;;;;;;;;4123760;34;20138;-64
2021/04/26 04:36:39;;;;;;;9.77;6.68;;;;;;;;;;4122325;34;20146;-64
2021/04/26 04:39:05;;;;;;;9.63;7.12;;;;;;;;;;4123794;34;20465;-64
2021/04/26 04:41:31;;;;;;;10.05;7.00;;;;;;;;;;4122449;34;20119;-64
2021/04/26 04:43:59;;;;;;;12.60;7.00;;;;;;;;;;4123593;34;20125;-64
2021/04/26 04:46:25;;;;;;;13.32;8.30;;;;;;;;;;4122234;34;20123;-64
2021/04/26 04:48:51;;;;;;;12.88;6.60;;;;;;;;;;4123688;34;20332;-63
2021/04/26 04:51:17;;;;;;;14.30;7.57;;;;;;;;;;4123536;34;20132;-64
2021/04/26 04:53:43;;;;;;;12.60;8.10;;;;;;;;;;4123597;34;20563;-64
2021/04/26 04:56:09;;;;;;;12.32;8.70;;;;;;;;;;4123489;34;20613;-64
2021/04/26 04:58:35;;;;;;;12.93;7.70;;;;;;;;;;4123438;34;20131;-64
2021/04/26 05:01:01;;;;;;;13.50;7.78;;;;;;;;;;4123398;34;20107;-64
2021/04/26 05:03:27;;;;;;;13.88;7.60;;;;;;;;;;4123571;34;20131;-64
2021/04/26 05:05:53;;;;;;;13.05;7.90;;;;;;;;;;4123470;34;20115;-64
2021/04/26 05:08:19;;;;;;;14.02;7.53;;;;;;;;;;4123675;34;20139;-64
2021/04/26 05:10:45;;;;;;;10.38;7.37;;;;;;;;;;4123262;34;20139;-64
2021/04/26 05:13:12;;;;;;;11.95;6.75;;;;;;;;;;4122092;34;20120;-64
2021/04/26 05:15:38;;;;;;;12.55;6.53;;;;;;;;;;4123287;34;20134;-64
2021/04/26 05:18:05;;;;;;;9.25;5.30;;;;;;;;;;4122785;34;20115;-64
2021/04/26 05:20:31;;;;;;;8.02;5.35;;;;;;;;;;4121802;34;20104;-64
2021/04/26 05:22:57;;;;;;;11.20;6.22;;;;;;;;;;4123426;34;20104;-64
2021/04/26 05:25:23;;;;;;;11.07;5.70;;;;;;;;;;4121996;34;20135;-64
2021/04/26 05:27:49;;;;;;;14.40;6.70;;;;;;;;;;4121486;34;20108;-64
2021/04/26 05:30:15;;;;;;;10.10;4.78;;;;;;;;;;4121932;34;20148;-65
2021/04/26 05:32:41;;;;;;;8.35;5.03;;;;;;;;;;4110732;34;20214;-64
2021/04/26 05:35:07;;;;;;;9.77;4.82;;;;;;;;;;4123155;34;20548;-65
2021/04/26 05:37:33;;;;;;;12.93;4.80;;;;;;;;;;4123028;34;20210;-64
2021/04/26 05:39:59;;;;;;;7.53;4.70;;;;;;;;;;4123077;34;20548;-64
2021/04/26 05:42:25;;;;;;;11.88;5.65;;;;;;;;;;4122996;34;20131;-64
2021/04/26 05:44:50;;;;;;;8.52;5.43;;;;;;;;;;4123435;34;20607;-65
2021/04/26 05:47:16;;;;;;;8.30;4.82;;;;;;;;;;4121865;34;20236;-64
2021/04/26 05:49:42;;;;;;;8.93;5.28;;;;;;;;;;4123197;34;20131;-64
2021/04/26 05:52:08;;;;;;;5.53;4.50;;;;;;;;;;4122744;34;20116;-64
2021/04/26 05:54:34;;;;;;;8.35;5.45;;;;;;;;;;4123142;34;20131;-65
2021/04/26 05:57:01;;;;;;;11.23;4.85;;;;;;;;;;4123077;34;20119;-63
2021/04/26 05:59:27;;;;;;;9.55;5.30;;;;;;;;;;4122970;34;20100;-64
2021/04/26 06:01:54;;;;;;;6.28;4.30;;;;;;;;;;4122922;34;20217;-63
2021/04/26 06:04:20;;;;;;;9.15;5.40;;;;;;;;;;4123108;34;20119;-64
2021/04/26 06:06:46;;;;;;;12.20;5.68;;;;;;;;;;4122698;34;20216;-63
2021/04/26 06:09:12;;;;;;;8.55;5.18;;;;;;;;;;4123120;34;20112;-64
2021/04/26 06:11:38;;;;;;;8.52;4.25;;;;;;;;;;4122744;34;20199;-64
2021/04/26 06:14:04;;;;;;;8.75;4.35;;;;;;;;;;4122806;34;20493;-64
2021/04/26 06:16:30;;;;;;;8.45;4.40;;;;;;;;;;4122650;34;20540;-63
2021/04/26 06:18:55;;;;;;;12.93;5.12;;;;;;;;;;4122708;34;20200;-64
2021/04/26 06:21:21;;;;;;;7.03;5.00;;;;;;;;;;4122616;34;20558;-64
2021/04/26 06:23:48;;;;;;;8.25;5.97;;;;;;;;;;4122621;34;20143;-64
2021/04/26 06:26:13;;;;;;;8.90;4.62;;;;;;;;;;4122402;34;20207;-63
2021/04/26 06:28:40;;;;;;;7.75;4.80;;;;;;;;;;4122663;34;20116;-64
2021/04/26 06:31:05;;;;;;;7.50;4.87;;;;;;;;;;4124294;34;20232;-64
2021/04/26 06:33:31;;;;;;;6.78;5.07;;;;;;;;;;4124734;34;20135;-64
2021/04/26 06:35:57;;;;;;;13.07;5.20;;;;;;;;;;4124596;34;20149;-63
2021/04/26 06:38:23;;;;;;;5.45;4.30;;;;;;;;;;4124656;34;20193;-64
2021/04/26 06:40:49;;;;;;;10.82;4.68;;;;;;;;;;4134585;34;20100;-63
2021/04/26 06:43:15;;;;;;;10.43;3.75;;;;;;;;;;4124692;34;20134;-64
2021/04/26 06:45:41;;;;;;;4.32;3.28;;;;;;;;;;4124641;34;20123;-63
2021/04/26 06:48:07;;;;;;;3.50;2.60;;;;;;;;;;4134534;34;20139;-64
2021/04/26 06:50:33;;;;;;;5.70;3.10;;;;;;;;;;4124576;34;20123;-64
2021/04/26 06:52:59;;;;;;;6.20;2.50;;;;;;;;;;4134321;34;20483;-64
2021/04/26 06:55:25;;;;;;;18.17;5.43;;;;;;;;;;4124529;34;20203;-63
2021/04/26 06:57:52;;;;;;;4.90;2.05;;;;;;;;;;4124353;34;20123;-65
2021/04/26 07:00:18;;;;;;;14.85;2.87;;;;;;;;;;4124588;34;20131;-64
2021/04/26 07:02:44;;;;;;;5.97;2.15;;;;;;;;;;4124430;34;20137;-65
2021/04/26 07:05:10;;;;;;;5.85;2.42;;;;;;;;;;4124570;34;20120;-65
2021/04/26 07:07:36;;;;;;;4.15;2.53;;;;;;;;;;4124290;34;20112;-64
2021/04/26 07:10:03;;;;;;;7.47;2.42;;;;;;;;;;4124423;34;20487;-65
2021/04/26 07:12:29;;;;;;;8.40;3.30;;;;;;;;;;4124253;34;20527;-63
2021/04/26 07:14:55;;;;;;;5.05;2.22;;;;;;;;;;4124397;34;20123;-65
2021/04/26 07:17:23;;;;;;;3.85;1.65;;;;;;;;;;4124363;34;20202;-64
2021/04/26 07:19:50;;;;;;;3.65;2.50;;;;;;;;;;4124397;34;20780;-64
2021/04/26 07:22:16;;;;;;;4.60;2.20;;;;;;;;;;4124291;34;20099;-63
2021/04/26 07:24:42;;;;;;;2.35;1.37;;;;;;;;;;4124421;34;20150;-63
2021/04/26 07:27:07;;;;;;;7.40;2.30;;;;;;;;;;4123935;34;20219;-63
2021/04/26 07:29:34;;;;;;;5.35;2.42;;;;;;;;;;4124043;34;20309;-64
2021/04/26 07:31:59;;;;;;;3.95;2.08;;;;;;;;;;4124097;34;20202;-64
2021/04/26 07:34:25;;;;;;;6.20;3.00;;;;;;;;;;4124314;34;20228;-64
2021/04/26 07:36:51;;;;;;;5.95;2.85;;;;;;;;;;4123946;34;20314;-64
2021/04/26 07:39:19;;;;;;;7.75;3.12;;;;;;;;;;4124435;34;20147;-64
2021/04/26 07:41:45;;;;;;;4.35;2.62;;;;;;;;;;4121994;34;20236;-64
2021/04/26 07:44:11;;;;;;;5.10;2.70;;;;;;;;;;4124193;34;20122;-63
2021/04/26 07:46:37;;;;;;;6.72;2.42;;;;;;;;;;4124064;34;20544;-64
2021/04/26 07:49:03;;;;;;;8.02;4.07;;;;;;;;;;4124082;34;20223;-63
2021/04/26 07:51:28;;;;;;;5.45;2.95;;;;;;;;;;4123979;34;20123;-64
2021/04/26 07:53:54;;;;;;;6.82;3.78;;;;;;;;;;4124215;34;20207;-64
2021/04/26 07:56:20;;;;;;;8.43;2.90;;;;;;;;;;4124013;34;20449;-64
2021/04/26 07:58:46;;;;;;;6.07;2.72;;;;;;;;;;4124309;34;20136;-64
2021/04/26 08:01:12;;;;;;;10.15;2.97;;;;;;;;;;4124030;34;20112;-63
2021/04/26 08:03:38;;;;;;;4.75;2.67;;;;;;;;;;4124315;34;20126;-63
2021/04/26 08:06:04;;;;;;;5.20;2.40;;;;;;;;;;4123885;34;20232;-64
2021/04/26 08:08:31;;;;;;;4.87;2.65;;;;;;;;;;4124122;34;20131;-64
2021/04/26 08:10:57;;;;;;;5.00;2.80;;;;;;;;;;4123915;34;20617;-63
2021/04/26 08:13:25;;;;;;;4.07;2.60;;;;;;;;;;4122767;34;20131;-65
2021/04/26 08:15:52;;;;;;;5.65;3.78;;;;;;;;;;4123863;34;20108;-66
2021/04/26 08:18:18;;;;;;;6.72;4.55;;;;;;;;;;4123775;34;20478;-64
2021/04/26 08:20:44;;;;;;;6.57;4.78;;;;;;;;;;4123720;34;20636;-63
2021/04/26 08:23:10;;;;;;;7.20;3.85;;;;;;;;;;4124004;34;20119;-63
2021/04/26 08:25:37;;;;;;;6.57;3.20;;;;;;;;;;4123776;34;20111;-65
2021/04/26 08:28:03;;;;;;;3.42;2.37;;;;;;;;;;4123559;34;20136;-65
2021/04/26 08:30:29;;;;;;;4.78;3.30;;;;;;;;;;4124037;34;20123;-64
2021/04/26 08:32:55;;;;;;;5.62;2.75;;;;;;;;;;4123589;34;20130;-64
2021/04/26 08:35:21;;;;;;;7.32;3.40;;;;;;;;;;4123909;34;20231;-65
2021/04/26 08:37:46;;;;;;;8.13;3.53;;;;;;;;;;4123558;34;20205;-65
2021/04/26 08:40:12;;;;;;;4.68;2.80;;;;;;;;;;4123735;34;20494;-65
2021/04/26 08:42:39;;;;;;;6.75;3.72;;;;;;;;;;4123654;34;20213;-65
2021/04/26 08:45:05;;;;;;;6.30;3.30;;;;;;;;;;4123712;34;20167;-65
2021/04/26 08:47:31;;;;;;;6.22;3.22;;;;;;;;;;4123688;34;20104;-65
2021/04/26 08:49:58;;;;;;;6.50;3.50;;;;;;;;;;4123582;34;20122;-65
2021/04/26 08:52:25;;;;;;;4.72;3.50;;;;;;;;;;4123479;34;20107;-66
2021/04/26 08:54:51;;;;;;;7.18;3.87;;;;;;;;;;4123644;34;20127;-65
2021/04/26 08:57:17;;;;;;;6.78;2.78;;;;;;;;;;4123684;34;20100;-65
2021/04/26 08:59:44;;;;;;;8.90;4.03;;;;;;;;;;4122311;34;20548;-65
2021/04/26 09:02:11;;;;;;;6.95;2.85;;;;;;;;;;4123437;34;20104;-64
2021/04/26 09:04:37;;;;;;;9.10;2.35;;;;;;;;;;4123745;34;20143;-65
2021/04/26 09:07:05;;;;;;;3.70;2.20;;;;;;;;;;4123372;34;20103;-64
2021/04/26 09:09:37;;;;;;;6.53;2.08;;;;;;;;;;4123396;34;20286;-65
2021/04/26 09:12:05;;;;;;;5.50;2.50;;;;;;;;;;4120233;34;20112;-64
2021/04/26 09:14:38;;;;;;;6.43;2.33;;;;;;;;;;4121981;34;20488;-64
2021/04/26 09:17:40;;;;;;;4.68;2.75;;;;;;;;;;4123192;34;20457;-66
2021/04/26 09:20:15;;;;;;;5.78;2.37;;;;;;;;;;4114190;34;20104;-64
2021/04/26 09:22:57;;;;;;;8.60;3.10;;;;;;;;;;4123603;34;20107;-64
2021/04/26 09:25:25;;;;;;;4.65;2.45;;;;;;;;;;4122972;34;20115;-63
2021/04/26 09:27:59;;;;;;;3.00;2.40;;;;;;;;;;4123204;34;20120;-64
2021/04/26 09:30:47;;;;;;;3.65;2.25;;;;;;;;;;4121528;34;20106;-64
2021/04/26 09:33:43;;;;;;;4.93;2.33;;;;;;;;;;4110348;34;20645;-66
2021/04/26 09:36:30;;;;;;;10.13;2.20;;;;;;;;;;4109860;34;20123;-65
2021/04/26 09:38:58;;;;;;;4.60;2.12;;;;;;;;;;4110294;34;20096;-63
2021/04/26 09:41:25;;;;;;;4.65;2.60;;;;;;;;;;4116653;34;20138;-63
2021/04/26 09:44:00;;;;;;;3.83;2.00;;;;;;;;;;4121632;34;20575;-64
2021/04/26 09:46:43;;;;;;;4.00;2.30;;;;;;;;;;4123095;34;20544;-63
2021/04/26 09:49:23;;;;;;;4.12;2.55;;;;;;;;;;4123194;34;20112;-63
2021/04/26 09:51:57;;;;;;;6.78;2.58;;;;;;;;;;4123043;34;20092;-64
2021/04/26 09:54:37;;;;;;;5.30;2.60;;;;;;;;;;4121718;34;20103;-63
2021/04/26 09:57:03;;;;;;;2.58;2.12;;;;;;;;;;4110877;34;20097;-68
2021/04/26 09:59:29;;;;;;;7.15;2.58;;;;;;;;;;4114927;34;20628;-67
2021/04/26 10:01:55;;;;;;;2.53;2.20;;;;;;;;;;4121896;34;20444;-67
2021/04/26 10:04:21;;;;;;;3.20;2.22;;;;;;;;;;4118564;34;20131;-68
2021/04/26 10:06:48;;;;;;;3.75;3.15;;;;;;;;;;4111527;34;20116;-69
2021/04/26 10:09:14;;;;;;;6.90;2.67;;;;;;;;;;4120343;34;20197;-67
2021/04/26 10:11:41;;;;;;;4.25;2.20;;;;;;;;;;4124787;34;20151;-68
2021/04/26 10:14:10;;;;;;;4.53;2.12;;;;;;;;;;4112044;34;20106;-67
2021/04/26 10:16:59;;;;;;;7.57;2.28;;;;;;;;;;4113509;34;20476;-67
2021/04/26 10:19:33;;;;;;;3.53;2.50;;;;;;;;;;4113391;34;20107;-67
2021/04/26 10:22:00;;;;;;;3.10;2.30;;;;;;;;;;4111003;34;20517;-68
2021/04/26 10:24:27;;;;;;;6.37;2.60;;;;;;;;;;4112100;34;20528;-68
2021/04/26 10:27:01;;;;;;;4.30;2.28;;;;;;;;;;4112722;34;20111;-68
2021/04/26 10:29:29;;;;;;;3.67;2.60;;;;;;;;;;4124099;34;20150;-68
2021/04/26 10:32:01;;;;;;;3.35;2.22;;;;;;;;;;4125115;34;20483;-69
2021/04/26 10:34:27;;;;;;;7.10;3.42;;;;;;;;;;4121380;34;20126;-68
2021/04/26 10:36:54;;;;;;;4.10;2.78;;;;;;;;;;4123094;34;20191;-69
2021/04/26 10:39:21;;;;;;;4.55;2.83;;;;;;;;;;4114038;34;20099;-69
2021/04/26 10:41:57;;;;;;;3.80;2.22;;;;;;;;;;4111937;34;20167;-69
2021/04/26 10:44:39;;;;;;;6.87;2.55;;;;;;;;;;4124809;34;20196;-69
2021/04/26 10:47:16;;;;;;;2.70;2.47;;;;;;;;;;4124731;34;20108;-67
2021/04/26 10:49:46;;;;;;;5.80;2.45;;;;;;;;;;4124724;34;20548;-71
2021/04/26 10:52:27;;;;;;;2.92;2.35;;;;;;;;;;4123098;34;20119;-70
2021/04/26 10:54:53;;;;;;;3.85;2.00;;;;;;;;;;4117269;34;20205;-70
2021/04/26 10:57:42;;;;;;;5.43;2.50;;;;;;;;;;4111342;34;20223;-68
2021/04/26 11:00:26;;;;;;;4.40;2.40;;;;;;;;;;4112963;34;20453;-68
2021/04/26 11:02:54;;;;;;;7.05;2.42;;;;;;;;;;4120613;34;20108;-69
2021/04/26 11:05:24;;;;;;;3.62;2.62;;;;;;;;;;4110871;34;20213;-67
2021/04/26 11:07:54;;;;;;;6.25;2.92;;;;;;;;;;4120255;34;20194;-69
2021/04/26 11:10:32;;;;;;;6.53;2.50;;;;;;;;;;4112569;34;20120;-69
2021/04/26 11:12:59;;;;;;;2.87;2.28;;;;;;;;;;4124551;34;20119;-71
2021/04/26 11:15:26;;;;;;;4.25;2.40;;;;;;;;;;4124775;34;20225;-70
2021/04/26 11:17:53;;;;;;;4.30;2.08;;;;;;;;;;4124570;34;20106;-70
2021/04/26 11:20:21;;;;;;;8.40;3.10;;;;;;;;;;4124521;34;20473;-70
2021/04/26 11:22:47;;;;;;;5.50;2.12;;;;;;;;;;4124621;34;20092;-71
2021/04/26 11:25:36;;;;;;;3.78;2.37;;;;;;;;;;4112105;34;20120;-70
2021/04/26 11:28:02;;;;;;;3.00;1.90;;;;;;;;;;4124303;34;20131;-70
2021/04/26 11:30:30;;;;;;;4.15;2.60;;;;;;;;;;4124353;34;20119;-71
2021/04/26 11:33:04;;;;;;;4.80;2.30;;;;;;;;;;4124652;34;20453;-71
2021/04/26 11:35:31;;;;;;;4.28;2.40;;;;;;;;;;4123402;34;20569;-70
2021/04/26 11:37:57;;;;;;;3.15;2.22;;;;;;;;;;4124510;34;20216;-70
2021/04/26 11:40:28;;;;;;;4.25;2.30;;;;;;;;;;4124370;34;20116;-71
2021/04/26 11:43:08;;;;;;;2.97;2.20;;;;;;;;;;4124642;34;20095;-70
2021/04/26 11:45:35;;;;;;;4.32;2.20;;;;;;;;;;4123211;34;20196;-70
2021/04/26 11:48:01;;;;;;;4.82;2.50;;;;;;;;;;4124516;34;20211;-70
2021/04/26 11:50:27;;;;;;;3.47;2.05;;;;;;;;;;4123015;34;20095;-70
2021/04/26 11:52:52;;;;;;;3.53;2.05;;;;;;;;;;4124272;34;20123;-70
2021/04/26 11:55:19;;;;;;;5.12;2.12;;;;;;;;;;4124204;34;20807;-69
2021/04/26 11:57:49;;;;;;;6.95;2.70;;;;;;;;;;4124394;34;20107;-70
2021/04/26 12:00:20;;;;;;;4.97;2.28;;;;;;;;;;4110994;34;20315;-69
2021/04/26 12:02:48;;;;;;;4.82;2.40;;;;;;;;;;4119477;34;20131;-69
2021/04/26 12:05:14;;;;;;;5.60;2.50;;;;;;;;;;4124102;34;20232;-68
2021/04/26 12:07:41;;;;;;;3.50;2.70;;;;;;;;;;4124256;34;20579;-71
2021/04/26 12:10:16;;;;;;;3.62;2.08;;;;;;;;;;4124173;34;20084;-67
2021/04/26 12:12:42;;;;;;;2.90;2.05;;;;;;;;;;4124164;34;20096;-68
2021/04/26 12:15:18;;;;;;;3.03;2.40;;;;;;;;;;4122711;34;20107;-69
2021/04/26 12:17:48;;;;;;;2.72;2.03;;;;;;;;;;4122598;34;20118;-68
2021/04/26 12:20:25;;;;;;;4.07;2.00;;;;;;;;;;4124370;34;20131;-68
2021/04/26 12:22:53;;;;;;;2.40;2.00;;;;;;;;;;4124163;34;20100;-68
2021/04/26 12:25:20;;;;;;;5.12;2.20;;;;;;;;;;4124142;34;20217;-69
2021/04/26 12:27:46;;;;;;;10.13;3.65;;;;;;;;;;4122073;34;20088;-68
2021/04/26 12:30:18;;;;;;;2.87;2.20;;;;;;;;;;4124013;34;20210;-67
2021/04/26 12:32:45;;;;;;;10.15;2.75;;;;;;;;;;4122549;34;20106;-68
2021/04/26 12:35:28;;;;;;;5.47;2.65;;;;;;;;;;4122492;34;20465;-69
2021/04/26 12:37:54;;;;;;;3.40;2.17;;;;;;;;;;4123037;34;20195;-68
2021/04/26 12:40:25;;;;;;;2.37;1.80;;;;;;;;;;4122455;34;20211;-69
2021/04/26 12:42:57;;;;;;;3.67;2.20;;;;;;;;;;4122566;34;20217;-69
2021/04/26 12:45:24;;;;;;;4.53;2.35;;;;;;;;;;4123974;34;20143;-69
2021/04/26 12:48:19;;;;;;;2.87;2.17;;;;;;;;;;4123999;34;20435;-69
2021/04/26 12:50:50;;;;;;;6.78;2.37;;;;;;;;;;4118988;34;20555;-70
2021/04/26 12:53:17;;;;;;;4.45;2.08;;;;;;;;;;4123583;34;20095;-70
2021/04/26 12:55:43;;;;;;;3.30;2.53;;;;;;;;;;4123724;34;20128;-69
2021/04/26 12:58:12;;;;;;;5.97;2.20;;;;;;;;;;4123531;34;20131;-70
2021/04/26 13:00:44;;;;;;;3.08;2.20;;;;;;;;;;4123731;34;20120;-69
2021/04/26 13:03:26;;;;;;;4.62;2.40;;;;;;;;;;4123458;34;20095;-70
2021/04/26 13:05:57;;;;;;;2.25;2.00;;;;;;;;;;4116623;34;20628;-70
2021/04/26 13:08:24;;;;;;;3.08;2.10;;;;;;;;;;4113613;34;20100;-69
2021/04/26 13:10:51;;;;;;;4.78;2.37;;;;;;;;;;4109901;34;20143;-71
2021/04/26 13:13:17;;;;;;;3.95;2.30;;;;;;;;;;4123413;34;20099;-69
2021/04/26 13:15:44;;;;;;;4.10;2.35;;;;;;;;;;4123045;34;20123;-69
2021/04/26 13:18:18;;;;;;;4.40;2.22;;;;;;;;;;4123518;34;20111;-70
2021/04/26 13:20:46;;;;;;;4.37;2.35;;;;;;;;;;4122874;34;20123;-70
2021/04/26 13:23:15;;;;;;;5.62;2.55;;;;;;;;;;4123696;34;20268;-69
2021/04/26 13:25:42;;;;;;;2.95;2.17;;;;;;;;;;4120342;34;20104;-68
2021/04/26 13:28:08;;;;;;;2.58;2.00;;;;;;;;;;4117114;34;20120;-71
2021/04/26 13:30:34;;;;;;;3.08;2.50;;;;;;;;;;4116907;34;20151;-69
2021/04/26 13:33:00;;;;;;;2.50;2.00;;;;;;;;;;4114842;34;20498;-69
2021/04/26 13:35:27;;;;;;;2.90;2.22;;;;;;;;;;4113801;34;20139;-69
2021/04/26 13:37:53;;;;;;;2.97;2.20;;;;;;;;;;4123267;34;20092;-71
2021/04/26 13:40:19;;;;;;;2.97;2.30;;;;;;;;;;4123719;34;20112;-69
2021/04/26 13:42:45;;;;;;;6.28;1.90;;;;;;;;;;4124155;34;20119;-70
2021/04/26 13:45:11;;;;;;;4.90;2.30;;;;;;;;;;4123605;34;20103;-70
2021/04/26 13:47:38;;;;;;;3.75;2.12;;;;;;;;;;4123392;34;20638;-73
2021/04/26 13:50:04;;;;;;;5.05;2.15;;;;;;;;;;4123919;34;20127;-71
2021/04/26 13:52:30;;;;;;;5.72;2.25;;;;;;;;;;4123253;34;20108;-70
2021/04/26 13:54:56;;;;;;;2.92;1.90;;;;;;;;;;4123523;34;20139;-69
2021/04/26 13:57:22;;;;;;;4.45;2.25;;;;;;;;;;4123469;34;20114;-69
2021/04/26 13:59:48;;;;;;;2.92;2.60;;;;;;;;;;4123616;34;20677;-70
2021/04/26 14:02:14;;;;;;;8.68;2.75;;;;;;;;;;4119955;34;20176;-71
2021/04/26 14:04:40;;;;;;;4.05;2.80;;;;;;;;;;4112672;34;20140;-72
2021/04/26 14:07:06;;;;;;;5.53;2.42;;;;;;;;;;4122615;34;20101;-72
2021/04/26 14:09:32;;;;;;;4.35;2.20;;;;;;;;;;4123477;34;20148;-69
2021/04/26 14:11:58;;;;;;;6.20;1.90;;;;;;;;;;4122066;34;20120;-70
2021/04/26 14:14:24;;;;;;;3.87;2.20;;;;;;;;;;4123629;34;20241;-71
2021/04/26 14:16:50;;;;;;;4.82;2.20;;;;;;;;;;4123035;34;20119;-70
2021/04/26 14:19:16;;;;;;;4.20;1.90;;;;;;;;;;4121948;34;20133;-70
2021/04/26 14:21:42;;;;;;;4.15;2.17;;;;;;;;;;4123589;34;20112;-70
2021/04/26 14:24:08;;;;;;;5.75;2.05;;;;;;;;;;4122374;34;20539;-71
2021/04/26 14:26:34;;;;;;;5.30;2.20;;;;;;;;;;4123099;34;20127;-71
2021/04/26 14:29:01;;;;;;;8.32;3.42;;;;;;;;;;4123112;34;20145;-70
2021/04/26 14:31:27;;;;;;;4.28;1.98;;;;;;;;;;4122951;34;20122;-71
2021/04/26 14:33:53;;;;;;;2.17;1.98;;;;;;;;;;4122922;34;20147;-70
2021/04/26 14:36:18;;;;;;;4.50;2.20;;;;;;;;;;4123099;34;20151;-70
2021/04/26 14:38:44;;;;;;;3.33;2.10;;;;;;;;;;4123247;34;20527;-70
2021/04/26 14:41:10;;;;;;;4.12;2.08;;;;;;;;;;4122937;34;20179;-71
2021/04/26 14:43:36;;;;;;;3.33;2.22;;;;;;;;;;4123397;34;20631;-69
2021/04/26 14:46:03;;;;;;;2.65;1.90;;;;;;;;;;4123210;34;20519;-70
2021/04/26 14:48:29;;;;;;;3.45;2.55;;;;;;;;;;4122961;34;20198;-70
2021/04/26 14:50:56;;;;;;;2.17;1.98;;;;;;;;;;4124101;34;20139;-69
2021/04/26 14:53:22;;;;;;;3.25;2.30;;;;;;;;;;4123947;34;20119;-70
2021/04/26 14:55:48;;;;;;;2.62;2.03;;;;;;;;;;4125125;34;20205;-69
2021/04/26 14:58:13;;;;;;;2.35;2.12;;;;;;;;;;4125235;34;20127;-69
2021/04/26 15:00:40;;;;;;;3.85;2.22;;;;;;;;;;4125318;34;20511;-70
2021/04/26 15:03:06;;;;;;;2.15;1.95;;;;;;;;;;4112804;34;20119;-71
2021/04/26 15:05:32;;;;;;;3.15;2.05;;;;;;;;;;4122099;34;20115;-70
2021/04/26 15:07:58;;;;;;;5.20;2.50;;;;;;;;;;4107690;34;20111;-69
2021/04/26 15:10:24;;;;;;;3.05;1.95;;;;;;;;;;4124547;34;20136;-70
2021/04/26 15:12:50;;;;;;;3.72;2.35;;;;;;;;;;4124474;34;20108;-70